GCLA Airport Information

Runway Information
Runway 01 Length 7218 ft width 148 ft
Elevation 103 ft Threshold 0 ft Heading 359
Runway 19 Length 7218 ft Width 148 ft
Elevation 65 ft Threshold 0 ft Heading 179
Airport Frequencies
Type APP Name CANARIAS A Frequency 126.1 MHZ
Type ATIS Name INFO Frequency 118.6 MHZ
Type GND Name GND Frequency 121.8 MHZ
Type TWR Name TWR Frequency 118.9 MHZ
Airport Navaids
Type DME Name La Palma Frequency 112400 KHZ
Type NDB Name La Palma Frequency 389 KHZ
Airport Weather Information & NOTAM
ADDS - METARS form results

(0222 UTC 13 December 2018)
Data provider http://aviationweather.gov/metar/data/
 
METAR text: GCLA 130200Z AUTO 35007KT 9999 BKN033/// 20/13 Q1026
Conditions at: GCLA (LA PALMA AIRPORT, ES) observed 0200 UTC 13 December 2018
Temperature: 20.0°C (68°F)
Dewpoint: 13.0°C (55°F) [RH = 64%]
Pressure (altimeter): 30.30 inches Hg (1026.0 mb)
Winds: from the N (350 degrees) at 8 MPH (7 knots; 3.6 m/s)
Visibility: 6 or more miles (10+ km)
Ceiling: 3300 feet AGL
Clouds: broken clouds at 3300 feet AGL
Weather: no significant weather observed at this time

METAR text: GCLA 130130Z AUTO 34007KT 300V010 9999 SCT035/// 19/12 Q1027
Conditions at: GCLA (LA PALMA AIRPORT, ES) observed 0130 UTC 13 December 2018
Temperature: 19.0°C (66°F)
Dewpoint: 12.0°C (54°F) [RH = 64%]
Pressure (altimeter): 30.32 inches Hg (1027.0 mb)
Winds: from the NNW (340 degrees) at 8 MPH (7 knots; 3.6 m/s)
Visibility: 6 or more miles (10+ km)
Ceiling: at least 12,000 feet AGL
Clouds: scattered clouds at 3500 feet AGL
Weather: no significant weather observed at this time

Forecast for: GCLA (LA PALMA AIRPORT, ES)
Text: TAF GCLA 122000Z 1221/1321 33007KT 9999 BKN030 TX23/1313Z TN18/1306Z
Forecast period: 2100 UTC 12 December 2018 to 1000 UTC 13 December 2018
Forecast type: FROM: standard forecast or significant change
Winds: from the NNW (330 degrees) at 8 MPH (7 knots; 3.6 m/s)
Visibility: 6 or more miles 10+ km)
Ceiling: 3000 feet AGL
Clouds: broken clouds at 3000 feet AGL
Weather: no significant weather forecast for this period
Text: BECMG 1310/1312 03010KT
Forecast period: 1000 to 2100 UTC 13 December 2018
Forecast type: BECOMING: Conditions expected to become as follows by 1200 UTC 13 December 2018
Winds: from the NNE (30 degrees) at 12 MPH (10 knots; 5.1 m/s)
Visibility: 6 or more miles 10+ km)
Ceiling: 3000 feet AGL
Clouds: broken clouds at 3000 feet AGL
Weather: no significant weather forecast for this period